sensor_id;sensor_type;location;lat;lon;timestamp;P1;durP1;ratioP1;P2;durP2;ratioP2
57752;SDS011;43583;53.132;6.574;2023-07-29T00:00:46;4.93;;;2.85;;
57752;SDS011;43583;53.132;6.574;2023-07-29T00:03:12;4.82;;;3.55;;
57752;SDS011;43583;53.132;6.574;2023-07-29T00:05:37;4.95;;;3.10;;
57752;SDS011;43583;53.132;6.574;2023-07-29T00:08:03;4.82;;;3.47;;
57752;SDS011;43583;53.132;6.574;2023-07-29T00:10:31;5.75;;;3.13;;
57752;SDS011;43583;53.132;6.574;2023-07-29T00:12:57;5.25;;;3.70;;
57752;SDS011;43583;53.132;6.574;2023-07-29T00:15:22;5.25;;;3.47;;
57752;SDS011;43583;53.132;6.574;2023-07-29T00:17:48;5.13;;;3.72;;
57752;SDS011;43583;53.132;6.574;2023-07-29T00:20:13;4.93;;;3.10;;
57752;SDS011;43583;53.132;6.574;2023-07-29T00:22:39;6.68;;;2.95;;
57752;SDS011;43583;53.132;6.574;2023-07-29T00:25:05;5.00;;;3.72;;
57752;SDS011;43583;53.132;6.574;2023-07-29T00:27:30;4.47;;;3.00;;
57752;SDS011;43583;53.132;6.574;2023-07-29T00:29:56;4.57;;;3.10;;
57752;SDS011;43583;53.132;6.574;2023-07-29T00:32:21;5.07;;;3.80;;
57752;SDS011;43583;53.132;6.574;2023-07-29T00:34:47;4.57;;;3.20;;
57752;SDS011;43583;53.132;6.574;2023-07-29T00:37:12;3.92;;;2.67;;
57752;SDS011;43583;53.132;6.574;2023-07-29T00:39:38;5.03;;;3.30;;
57752;SDS011;43583;53.132;6.574;2023-07-29T00:42:04;6.07;;;3.45;;
57752;SDS011;43583;53.132;6.574;2023-07-29T00:44:30;4.03;;;3.63;;
57752;SDS011;43583;53.132;6.574;2023-07-29T00:46:58;4.07;;;3.25;;
57752;SDS011;43583;53.132;6.574;2023-07-29T00:49:27;4.15;;;3.65;;
57752;SDS011;43583;53.132;6.574;2023-07-29T00:51:53;4.70;;;3.47;;
57752;SDS011;43583;53.132;6.574;2023-07-29T00:54:19;5.25;;;3.78;;
57752;SDS011;43583;53.132;6.574;2023-07-29T00:56:44;4.80;;;3.60;;
57752;SDS011;43583;53.132;6.574;2023-07-29T00:59:10;5.13;;;3.63;;
57752;SDS011;43583;53.132;6.574;2023-07-29T01:01:36;6.40;;;4.18;;
57752;SDS011;43583;53.132;6.574;2023-07-29T01:04:01;4.80;;;3.92;;
57752;SDS011;43583;53.132;6.574;2023-07-29T01:09:36;8.05;;;3.63;;
57752;SDS011;43583;53.132;6.574;2023-07-29T01:15:16;5.57;;;3.80;;
57752;SDS011;43583;53.132;6.574;2023-07-29T01:17:51;5.72;;;4.47;;
57752;SDS011;43583;53.132;6.574;2023-07-29T01:20:19;6.32;;;4.40;;
57752;SDS011;43583;53.132;6.574;2023-07-29T01:22:45;4.85;;;3.45;;
57752;SDS011;43583;53.132;6.574;2023-07-29T01:25:12;7.07;;;3.85;;
57752;SDS011;43583;53.132;6.574;2023-07-29T01:27:38;5.38;;;4.07;;
57752;SDS011;43583;53.132;6.574;2023-07-29T01:30:05;5.05;;;4.38;;
57752;SDS011;43583;53.132;6.574;2023-07-29T01:32:35;5.35;;;4.03;;
57752;SDS011;43583;53.132;6.574;2023-07-29T01:35:33;7.05;;;4.35;;
57752;SDS011;43583;53.132;6.574;2023-07-29T01:38:08;6.05;;;3.95;;
57752;SDS011;43583;53.132;6.574;2023-07-29T01:40:38;6.40;;;3.65;;
57752;SDS011;43583;53.132;6.574;2023-07-29T01:43:05;5.22;;;4.03;;
57752;SDS011;43583;53.132;6.574;2023-07-29T01:45:33;6.60;;;4.03;;
57752;SDS011;43583;53.132;6.574;2023-07-29T01:48:03;5.72;;;4.15;;
57752;SDS011;43583;53.132;6.574;2023-07-29T01:50:32;5.35;;;3.75;;
57752;SDS011;43583;53.132;6.574;2023-07-29T01:52:58;5.63;;;4.53;;
57752;SDS011;43583;53.132;6.574;2023-07-29T01:55:24;5.43;;;4.25;;
57752;SDS011;43583;53.132;6.574;2023-07-29T01:57:49;4.78;;;3.58;;
57752;SDS011;43583;53.132;6.574;2023-07-29T02:00:16;6.15;;;3.75;;
57752;SDS011;43583;53.132;6.574;2023-07-29T02:02:46;8.07;;;4.05;;
57752;SDS011;43583;53.132;6.574;2023-07-29T02:05:11;6.25;;;3.97;;
57752;SDS011;43583;53.132;6.574;2023-07-29T02:07:37;7.97;;;4.65;;
57752;SDS011;43583;53.132;6.574;2023-07-29T02:10:02;7.63;;;4.22;;
57752;SDS011;43583;53.132;6.574;2023-07-29T02:12:28;5.72;;;3.35;;
57752;SDS011;43583;53.132;6.574;2023-07-29T02:14:54;5.07;;;3.90;;
57752;SDS011;43583;53.132;6.574;2023-07-29T02:17:19;5.97;;;3.90;;
57752;SDS011;43583;53.132;6.574;2023-07-29T02:19:46;6.00;;;4.22;;
57752;SDS011;43583;53.132;6.574;2023-07-29T02:22:15;5.45;;;3.58;;
57752;SDS011;43583;53.132;6.574;2023-07-29T02:24:42;6.55;;;4.43;;
57752;SDS011;43583;53.132;6.574;2023-07-29T02:27:07;5.57;;;4.07;;
57752;SDS011;43583;53.132;6.574;2023-07-29T02:29:33;4.18;;;2.92;;
57752;SDS011;43583;53.132;6.574;2023-07-29T02:31:59;5.65;;;3.63;;
57752;SDS011;43583;53.132;6.574;2023-07-29T02:34:25;6.47;;;3.50;;
57752;SDS011;43583;53.132;6.574;2023-07-29T02:36:50;5.78;;;4.70;;
57752;SDS011;43583;53.132;6.574;2023-07-29T02:39:16;6.45;;;3.45;;
57752;SDS011;43583;53.132;6.574;2023-07-29T02:41:42;7.13;;;4.30;;
57752;SDS011;43583;53.132;6.574;2023-07-29T02:44:07;5.20;;;3.45;;
57752;SDS011;43583;53.132;6.574;2023-07-29T02:46:33;7.78;;;3.78;;
57752;SDS011;43583;53.132;6.574;2023-07-29T02:48:58;8.10;;;4.38;;
57752;SDS011;43583;53.132;6.574;2023-07-29T02:51:24;7.15;;;4.07;;
57752;SDS011;43583;53.132;6.574;2023-07-29T02:53:49;6.18;;;3.38;;
57752;SDS011;43583;53.132;6.574;2023-07-29T02:56:15;5.35;;;3.78;;
57752;SDS011;43583;53.132;6.574;2023-07-29T02:58:41;5.30;;;3.38;;
57752;SDS011;43583;53.132;6.574;2023-07-29T03:01:06;6.03;;;3.08;;
57752;SDS011;43583;53.132;6.574;2023-07-29T03:03:32;5.43;;;3.00;;
57752;SDS011;43583;53.132;6.574;2023-07-29T03:05:59;8.32;;;3.97;;
57752;SDS011;43583;53.132;6.574;2023-07-29T03:08:26;4.63;;;3.75;;
57752;SDS011;43583;53.132;6.574;2023-07-29T03:10:51;5.35;;;3.83;;
57752;SDS011;43583;53.132;6.574;2023-07-29T03:13:17;6.25;;;3.72;;
57752;SDS011;43583;53.132;6.574;2023-07-29T03:15:42;6.20;;;3.40;;
57752;SDS011;43583;53.132;6.574;2023-07-29T03:18:08;5.70;;;3.53;;
57752;SDS011;43583;53.132;6.574;2023-07-29T03:20:33;5.60;;;3.63;;
57752;SDS011;43583;53.132;6.574;2023-07-29T03:22:59;6.72;;;3.15;;
57752;SDS011;43583;53.132;6.574;2023-07-29T03:25:24;7.75;;;3.65;;
57752;SDS011;43583;53.132;6.574;2023-07-29T03:27:50;6.15;;;3.70;;
57752;SDS011;43583;53.132;6.574;2023-07-29T03:30:18;4.40;;;2.72;;
57752;SDS011;43583;53.132;6.574;2023-07-29T03:32:46;4.63;;;3.13;;
57752;SDS011;43583;53.132;6.574;2023-07-29T03:35:11;4.53;;;2.53;;
57752;SDS011;43583;53.132;6.574;2023-07-29T03:37:37;5.55;;;3.05;;
57752;SDS011;43583;53.132;6.574;2023-07-29T03:40:02;7.43;;;2.55;;
57752;SDS011;43583;53.132;6.574;2023-07-29T03:42:29;5.95;;;2.83;;
57752;SDS011;43583;53.132;6.574;2023-07-29T03:44:54;3.75;;;2.75;;
57752;SDS011;43583;53.132;6.574;2023-07-29T03:47:20;4.50;;;2.47;;
57752;SDS011;43583;53.132;6.574;2023-07-29T03:49:45;5.40;;;2.58;;
57752;SDS011;43583;53.132;6.574;2023-07-29T03:52:11;5.82;;;2.85;;
57752;SDS011;43583;53.132;6.574;2023-07-29T03:54:36;4.72;;;2.83;;
57752;SDS011;43583;53.132;6.574;2023-07-29T03:57:02;5.10;;;2.78;;
57752;SDS011;43583;53.132;6.574;2023-07-29T03:59:28;4.68;;;2.10;;
57752;SDS011;43583;53.132;6.574;2023-07-29T04:01:54;5.95;;;2.67;;
57752;SDS011;43583;53.132;6.574;2023-07-29T04:04:19;4.25;;;2.38;;
57752;SDS011;43583;53.132;6.574;2023-07-29T04:06:45;5.78;;;2.80;;
57752;SDS011;43583;53.132;6.574;2023-07-29T04:09:11;5.40;;;2.75;;
57752;SDS011;43583;53.132;6.574;2023-07-29T04:11:36;4.43;;;2.40;;
57752;SDS011;43583;53.132;6.574;2023-07-29T04:14:02;6.47;;;2.38;;
57752;SDS011;43583;53.132;6.574;2023-07-29T04:16:27;4.53;;;3.17;;
57752;SDS011;43583;53.132;6.574;2023-07-29T04:18:53;4.40;;;2.38;;
57752;SDS011;43583;53.132;6.574;2023-07-29T04:21:19;3.55;;;2.08;;
57752;SDS011;43583;53.132;6.574;2023-07-29T04:23:45;5.75;;;2.00;;
57752;SDS011;43583;53.132;6.574;2023-07-29T04:26:10;3.40;;;2.38;;
57752;SDS011;43583;53.132;6.574;2023-07-29T04:28:36;4.25;;;2.53;;
57752;SDS011;43583;53.132;6.574;2023-07-29T04:31:01;4.32;;;2.17;;
57752;SDS011;43583;53.132;6.574;2023-07-29T04:33:28;4.78;;;1.88;;
57752;SDS011;43583;53.132;6.574;2023-07-29T04:35:55;4.60;;;1.70;;
57752;SDS011;43583;53.132;6.574;2023-07-29T04:38:20;5.05;;;1.98;;
57752;SDS011;43583;53.132;6.574;2023-07-29T04:40:48;5.18;;;1.98;;
57752;SDS011;43583;53.132;6.574;2023-07-29T04:43:14;9.75;;;2.17;;
57752;SDS011;43583;53.132;6.574;2023-07-29T04:45:45;3.05;;;1.60;;
57752;SDS011;43583;53.132;6.574;2023-07-29T04:48:11;2.55;;;1.90;;
57752;SDS011;43583;53.132;6.574;2023-07-29T04:50:36;4.15;;;2.13;;
57752;SDS011;43583;53.132;6.574;2023-07-29T04:53:02;2.90;;;1.20;;
57752;SDS011;43583;53.132;6.574;2023-07-29T04:55:27;3.25;;;1.40;;
57752;SDS011;43583;53.132;6.574;2023-07-29T04:57:53;3.10;;;1.80;;
57752;SDS011;43583;53.132;6.574;2023-07-29T05:00:18;3.42;;;1.25;;
57752;SDS011;43583;53.132;6.574;2023-07-29T05:02:44;3.08;;;1.13;;
57752;SDS011;43583;53.132;6.574;2023-07-29T05:05:10;1.80;;;1.30;;
57752;SDS011;43583;53.132;6.574;2023-07-29T05:07:35;2.50;;;1.15;;
57752;SDS011;43583;53.132;6.574;2023-07-29T05:10:01;2.28;;;0.93;;
57752;SDS011;43583;53.132;6.574;2023-07-29T05:12:26;2.85;;;0.95;;
57752;SDS011;43583;53.132;6.574;2023-07-29T05:14:52;3.30;;;0.98;;
57752;SDS011;43583;53.132;6.574;2023-07-29T05:17:17;1.40;;;0.80;;
57752;SDS011;43583;53.132;6.574;2023-07-29T05:19:43;4.00;;;0.80;;
57752;SDS011;43583;53.132;6.574;2023-07-29T05:22:09;3.63;;;1.05;;
57752;SDS011;43583;53.132;6.574;2023-07-29T05:24:35;2.92;;;1.13;;
57752;SDS011;43583;53.132;6.574;2023-07-29T05:27:00;2.38;;;0.80;;
57752;SDS011;43583;53.132;6.574;2023-07-29T05:29:26;3.67;;;1.15;;
57752;SDS011;43583;53.132;6.574;2023-07-29T05:31:52;1.42;;;0.60;;
57752;SDS011;43583;53.132;6.574;2023-07-29T05:34:17;2.22;;;1.10;;
57752;SDS011;43583;53.132;6.574;2023-07-29T05:36:43;2.80;;;1.17;;
57752;SDS011;43583;53.132;6.574;2023-07-29T05:39:08;2.00;;;0.95;;
57752;SDS011;43583;53.132;6.574;2023-07-29T05:41:34;3.25;;;0.95;;
57752;SDS011;43583;53.132;6.574;2023-07-29T05:43:59;2.88;;;1.13;;
57752;SDS011;43583;53.132;6.574;2023-07-29T05:46:25;3.83;;;1.08;;
57752;SDS011;43583;53.132;6.574;2023-07-29T05:48:51;2.47;;;0.85;;
57752;SDS011;43583;53.132;6.574;2023-07-29T05:51:16;1.88;;;0.70;;
57752;SDS011;43583;53.132;6.574;2023-07-29T05:53:42;3.25;;;0.60;;
57752;SDS011;43583;53.132;6.574;2023-07-29T05:56:07;2.15;;;0.88;;
57752;SDS011;43583;53.132;6.574;2023-07-29T05:58:35;2.28;;;0.82;;
57752;SDS011;43583;53.132;6.574;2023-07-29T06:01:00;3.15;;;0.80;;
57752;SDS011;43583;53.132;6.574;2023-07-29T06:03:26;2.38;;;0.80;;
57752;SDS011;43583;53.132;6.574;2023-07-29T06:05:52;1.35;;;0.80;;
57752;SDS011;43583;53.132;6.574;2023-07-29T06:08:17;2.95;;;0.50;;
57752;SDS011;43583;53.132;6.574;2023-07-29T06:10:43;2.38;;;0.63;;
57752;SDS011;43583;53.132;6.574;2023-07-29T06:13:08;1.80;;;0.40;;
57752;SDS011;43583;53.132;6.574;2023-07-29T06:15:34;1.75;;;0.43;;
57752;SDS011;43583;53.132;6.574;2023-07-29T06:18:00;1.52;;;0.30;;
57752;SDS011;43583;53.132;6.574;2023-07-29T06:20:25;1.75;;;0.68;;
57752;SDS011;43583;53.132;6.574;2023-07-29T06:22:51;1.48;;;0.30;;
57752;SDS011;43583;53.132;6.574;2023-07-29T06:25:16;2.40;;;0.55;;
57752;SDS011;43583;53.132;6.574;2023-07-29T06:27:42;2.25;;;0.50;;
57752;SDS011;43583;53.132;6.574;2023-07-29T06:30:07;2.33;;;0.40;;
57752;SDS011;43583;53.132;6.574;2023-07-29T06:32:34;3.50;;;0.60;;
57752;SDS011;43583;53.132;6.574;2023-07-29T06:34:59;2.25;;;0.90;;
57752;SDS011;43583;53.132;6.574;2023-07-29T06:37:25;1.65;;;0.98;;
57752;SDS011;43583;53.132;6.574;2023-07-29T06:39:51;1.40;;;0.40;;
57752;SDS011;43583;53.132;6.574;2023-07-29T06:42:16;1.98;;;0.28;;
57752;SDS011;43583;53.132;6.574;2023-07-29T06:44:42;3.10;;;0.40;;
57752;SDS011;43583;53.132;6.574;2023-07-29T06:47:07;0.95;;;0.20;;
57752;SDS011;43583;53.132;6.574;2023-07-29T06:49:33;1.40;;;0.30;;
57752;SDS011;43583;53.132;6.574;2023-07-29T06:51:58;2.65;;;0.40;;
57752;SDS011;43583;53.132;6.574;2023-07-29T06:54:24;3.10;;;0.40;;
57752;SDS011;43583;53.132;6.574;2023-07-29T06:56:53;1.65;;;0.38;;
57752;SDS011;43583;53.132;6.574;2023-07-29T06:59:18;2.55;;;0.40;;
57752;SDS011;43583;53.132;6.574;2023-07-29T07:01:44;2.15;;;0.30;;
57752;SDS011;43583;53.132;6.574;2023-07-29T07:04:09;5.70;;;0.20;;
57752;SDS011;43583;53.132;6.574;2023-07-29T07:06:35;3.95;;;0.50;;
57752;SDS011;43583;53.132;6.574;2023-07-29T07:09:00;2.42;;;0.88;;
57752;SDS011;43583;53.132;6.574;2023-07-29T07:11:26;2.40;;;0.50;;
57752;SDS011;43583;53.132;6.574;2023-07-29T07:13:51;3.40;;;0.65;;
57752;SDS011;43583;53.132;6.574;2023-07-29T07:16:17;3.10;;;0.40;;
57752;SDS011;43583;53.132;6.574;2023-07-29T07:18:43;1.15;;;0.40;;
57752;SDS011;43583;53.132;6.574;2023-07-29T07:21:08;2.88;;;0.73;;
57752;SDS011;43583;53.132;6.574;2023-07-29T07:23:34;1.70;;;0.68;;
57752;SDS011;43583;53.132;6.574;2023-07-29T07:25:59;3.90;;;0.70;;
57752;SDS011;43583;53.132;6.574;2023-07-29T07:28:25;3.28;;;0.60;;
57752;SDS011;43583;53.132;6.574;2023-07-29T07:30:51;2.05;;;0.63;;
57752;SDS011;43583;53.132;6.574;2023-07-29T07:33:16;1.73;;;0.60;;
57752;SDS011;43583;53.132;6.574;2023-07-29T07:35:42;3.83;;;0.77;;
57752;SDS011;43583;53.132;6.574;2023-07-29T07:38:08;4.65;;;1.10;;
57752;SDS011;43583;53.132;6.574;2023-07-29T07:40:34;3.83;;;0.95;;
57752;SDS011;43583;53.132;6.574;2023-07-29T07:43:01;3.13;;;0.47;;
57752;SDS011;43583;53.132;6.574;2023-07-29T07:45:26;6.22;;;0.90;;
57752;SDS011;43583;53.132;6.574;2023-07-29T07:47:52;2.13;;;0.93;;
57752;SDS011;43583;53.132;6.574;2023-07-29T07:50:21;3.75;;;1.08;;
57752;SDS011;43583;53.132;6.574;2023-07-29T07:52:49;2.38;;;0.80;;
57752;SDS011;43583;53.132;6.574;2023-07-29T07:55:14;2.47;;;0.98;;
57752;SDS011;43583;53.132;6.574;2023-07-29T07:57:40;2.15;;;0.85;;
57752;SDS011;43583;53.132;6.574;2023-07-29T08:00:06;2.67;;;0.93;;
57752;SDS011;43583;53.132;6.574;2023-07-29T08:02:31;4.70;;;0.70;;
57752;SDS011;43583;53.132;6.574;2023-07-29T08:04:57;3.22;;;0.70;;
57752;SDS011;43583;53.132;6.574;2023-07-29T08:07:23;1.58;;;0.80;;
57752;SDS011;43583;53.132;6.574;2023-07-29T08:09:48;3.13;;;0.50;;
57752;SDS011;43583;53.132;6.574;2023-07-29T08:12:14;3.95;;;0.60;;
57752;SDS011;43583;53.132;6.574;2023-07-29T08:14:39;4.18;;;1.00;;
57752;SDS011;43583;53.132;6.574;2023-07-29T08:17:05;4.40;;;0.77;;
57752;SDS011;43583;53.132;6.574;2023-07-29T08:19:31;3.70;;;0.52;;
57752;SDS011;43583;53.132;6.574;2023-07-29T08:21:56;2.08;;;0.52;;
57752;SDS011;43583;53.132;6.574;2023-07-29T08:24:22;1.65;;;0.40;;
57752;SDS011;43583;53.132;6.574;2023-07-29T08:26:47;2.53;;;0.30;;
57752;SDS011;43583;53.132;6.574;2023-07-29T08:29:13;1.90;;;0.50;;
57752;SDS011;43583;53.132;6.574;2023-07-29T08:31:38;1.10;;;0.30;;
57752;SDS011;43583;53.132;6.574;2023-07-29T08:34:04;2.22;;;0.52;;
57752;SDS011;43583;53.132;6.574;2023-07-29T08:36:30;2.42;;;0.40;;
57752;SDS011;43583;53.132;6.574;2023-07-29T08:38:55;1.40;;;0.20;;
57752;SDS011;43583;53.132;6.574;2023-07-29T08:44:22;0.80;;;0.20;;
57752;SDS011;43583;53.132;6.574;2023-07-29T08:46:49;2.22;;;0.30;;
57752;SDS011;43583;53.132;6.574;2023-07-29T08:49:15;2.05;;;0.30;;
57752;SDS011;43583;53.132;6.574;2023-07-29T08:51:44;1.80;;;0.20;;
57752;SDS011;43583;53.132;6.574;2023-07-29T08:54:13;1.88;;;0.40;;
57752;SDS011;43583;53.132;6.574;2023-07-29T08:56:42;2.50;;;0.63;;
57752;SDS011;43583;53.132;6.574;2023-07-29T08:59:09;3.80;;;0.40;;
57752;SDS011;43583;53.132;6.574;2023-07-29T09:01:35;1.70;;;0.40;;
57752;SDS011;43583;53.132;6.574;2023-07-29T09:04:04;1.98;;;0.40;;
57752;SDS011;43583;53.132;6.574;2023-07-29T09:06:31;2.95;;;0.60;;
57752;SDS011;43583;53.132;6.574;2023-07-29T09:08:57;0.95;;;0.30;;
57752;SDS011;43583;53.132;6.574;2023-07-29T09:11:24;2.10;;;0.40;;
57752;SDS011;43583;53.132;6.574;2023-07-29T09:13:50;0.88;;;0.40;;
57752;SDS011;43583;53.132;6.574;2023-07-29T09:16:16;4.15;;;0.40;;
57752;SDS011;43583;53.132;6.574;2023-07-29T09:18:41;1.58;;;0.30;;
57752;SDS011;43583;53.132;6.574;2023-07-29T09:21:07;1.27;;;0.40;;
57752;SDS011;43583;53.132;6.574;2023-07-29T09:23:40;2.50;;;0.28;;
57752;SDS011;43583;53.132;6.574;2023-07-29T09:26:06;2.00;;;0.30;;
57752;SDS011;43583;53.132;6.574;2023-07-29T09:28:36;1.13;;;0.13;;
57752;SDS011;43583;53.132;6.574;2023-07-29T09:31:02;1.48;;;0.30;;
57752;SDS011;43583;53.132;6.574;2023-07-29T09:33:29;0.82;;;0.13;;
57752;SDS011;43583;53.132;6.574;2023-07-29T09:35:56;1.73;;;0.10;;
57752;SDS011;43583;53.132;6.574;2023-07-29T09:38:28;1.65;;;0.30;;
57752;SDS011;43583;53.132;6.574;2023-07-29T09:40:54;2.60;;;0.40;;
57752;SDS011;43583;53.132;6.574;2023-07-29T09:43:25;0.77;;;0.20;;
57752;SDS011;43583;53.132;6.574;2023-07-29T09:46:01;1.13;;;0.20;;
57752;SDS011;43583;53.132;6.574;2023-07-29T09:48:34;1.17;;;0.30;;
57752;SDS011;43583;53.132;6.574;2023-07-29T09:51:09;0.93;;;0.20;;
57752;SDS011;43583;53.132;6.574;2023-07-29T09:53:39;2.17;;;0.52;;
57752;SDS011;43583;53.132;6.574;2023-07-29T09:56:06;1.27;;;0.10;;
57752;SDS011;43583;53.132;6.574;2023-07-29T09:58:31;0.68;;;0.10;;
57752;SDS011;43583;53.132;6.574;2023-07-29T10:00:58;3.55;;;0.10;;
57752;SDS011;43583;53.132;6.574;2023-07-29T10:03:23;1.02;;;0.20;;
57752;SDS011;43583;53.132;6.574;2023-07-29T10:05:50;0.95;;;0.10;;
57752;SDS011;43583;53.132;6.574;2023-07-29T10:08:16;0.82;;;0.10;;
57752;SDS011;43583;53.132;6.574;2023-07-29T10:10:44;1.92;;;0.10;;
57752;SDS011;43583;53.132;6.574;2023-07-29T10:13:10;1.92;;;0.20;;
57752;SDS011;43583;53.132;6.574;2023-07-29T10:15:37;0.75;;;0.20;;
57752;SDS011;43583;53.132;6.574;2023-07-29T10:18:02;0.30;;;0.10;;
57752;SDS011;43583;53.132;6.574;2023-07-29T10:20:30;0.70;;;0.10;;
57752;SDS011;43583;53.132;6.574;2023-07-29T10:22:59;0.90;;;0.20;;
57752;SDS011;43583;53.132;6.574;2023-07-29T10:25:27;0.60;;;0.15;;
57752;SDS011;43583;53.132;6.574;2023-07-29T10:28:07;1.10;;;0.40;;
57752;SDS011;43583;53.132;6.574;2023-07-29T10:30:36;1.52;;;0.38;;
57752;SDS011;43583;53.132;6.574;2023-07-29T10:33:04;1.15;;;0.15;;
57752;SDS011;43583;53.132;6.574;2023-07-29T10:35:34;4.10;;;0.30;;
57752;SDS011;43583;53.132;6.574;2023-07-29T10:38:01;1.05;;;0.10;;
57752;SDS011;43583;53.132;6.574;2023-07-29T10:40:43;3.33;;;0.20;;
57752;SDS011;43583;53.132;6.574;2023-07-29T10:43:12;0.70;;;0.13;;
57752;SDS011;43583;53.132;6.574;2023-07-29T10:45:43;1.10;;;0.20;;
57752;SDS011;43583;53.132;6.574;2023-07-29T10:48:12;1.80;;;0.17;;
57752;SDS011;43583;53.132;6.574;2023-07-29T10:54:24;1.40;;;0.10;;
57752;SDS011;43583;53.132;6.574;2023-07-29T10:56:46;0.85;;;0.20;;
57752;SDS011;43583;53.132;6.574;2023-07-29T11:01:43;2.50;;;0.20;;
57752;SDS011;43583;53.132;6.574;2023-07-29T11:04:50;2.05;;;0.10;;
57752;SDS011;43583;53.132;6.574;2023-07-29T11:17:37;1.48;;;0.20;;
57752;SDS011;43583;53.132;6.574;2023-07-29T11:20:05;1.48;;;0.32;;
57752;SDS011;43583;53.132;6.574;2023-07-29T11:22:32;0.57;;;0.20;;
57752;SDS011;43583;53.132;6.574;2023-07-29T11:24:58;2.28;;;0.15;;
57752;SDS011;43583;53.132;6.574;2023-07-29T11:27:24;0.68;;;0.10;;
57752;SDS011;43583;53.132;6.574;2023-07-29T11:29:49;0.90;;;0.20;;
57752;SDS011;43583;53.132;6.574;2023-07-29T11:32:15;0.88;;;0.20;;
57752;SDS011;43583;53.132;6.574;2023-07-29T11:34:42;2.30;;;0.22;;
57752;SDS011;43583;53.132;6.574;2023-07-29T11:37:10;1.95;;;0.40;;
57752;SDS011;43583;53.132;6.574;2023-07-29T11:39:40;2.80;;;0.30;;
57752;SDS011;43583;53.132;6.574;2023-07-29T11:42:06;0.70;;;0.20;;
57752;SDS011;43583;53.132;6.574;2023-07-29T11:44:32;2.55;;;0.47;;
57752;SDS011;43583;53.132;6.574;2023-07-29T11:46:57;1.88;;;0.28;;
57752;SDS011;43583;53.132;6.574;2023-07-29T11:49:23;2.47;;;0.20;;
57752;SDS011;43583;53.132;6.574;2023-07-29T11:51:48;3.92;;;0.40;;
57752;SDS011;43583;53.132;6.574;2023-07-29T11:54:15;2.17;;;0.55;;
57752;SDS011;43583;53.132;6.574;2023-07-29T11:56:40;1.02;;;0.30;;
57752;SDS011;43583;53.132;6.574;2023-07-29T11:59:06;2.13;;;0.40;;
57752;SDS011;43583;53.132;6.574;2023-07-29T12:01:32;2.15;;;0.38;;
57752;SDS011;43583;53.132;6.574;2023-07-29T12:03:58;1.42;;;0.20;;
57752;SDS011;43583;53.132;6.574;2023-07-29T12:06:24;2.50;;;0.45;;
57752;SDS011;43583;53.132;6.574;2023-07-29T12:08:50;2.47;;;0.50;;
57752;SDS011;43583;53.132;6.574;2023-07-29T12:11:16;3.15;;;0.25;;
57752;SDS011;43583;53.132;6.574;2023-07-29T12:13:42;1.13;;;0.30;;
57752;SDS011;43583;53.132;6.574;2023-07-29T12:16:08;1.77;;;0.30;;
57752;SDS011;43583;53.132;6.574;2023-07-29T12:18:34;1.23;;;0.50;;
57752;SDS011;43583;53.132;6.574;2023-07-29T12:21:01;2.53;;;0.40;;
57752;SDS011;43583;53.132;6.574;2023-07-29T12:23:27;2.38;;;0.60;;
57752;SDS011;43583;53.132;6.574;2023-07-29T12:25:57;2.25;;;0.30;;
57752;SDS011;43583;53.132;6.574;2023-07-29T12:28:24;2.33;;;0.50;;
57752;SDS011;43583;53.132;6.574;2023-07-29T12:30:54;4.05;;;0.55;;
57752;SDS011;43583;53.132;6.574;2023-07-29T12:33:29;1.42;;;0.30;;
57752;SDS011;43583;53.132;6.574;2023-07-29T12:35:55;2.40;;;0.40;;
57752;SDS011;43583;53.132;6.574;2023-07-29T12:38:21;2.30;;;0.30;;
57752;SDS011;43583;53.132;6.574;2023-07-29T12:40:47;1.77;;;0.85;;
57752;SDS011;43583;53.132;6.574;2023-07-29T12:43:12;1.27;;;0.40;;
57752;SDS011;43583;53.132;6.574;2023-07-29T12:45:38;1.33;;;0.30;;
57752;SDS011;43583;53.132;6.574;2023-07-29T12:48:06;4.25;;;0.30;;
57752;SDS011;43583;53.132;6.574;2023-07-29T12:50:32;0.68;;;0.32;;
57752;SDS011;43583;53.132;6.574;2023-07-29T12:52:57;1.42;;;0.28;;
57752;SDS011;43583;53.132;6.574;2023-07-29T12:55:23;2.17;;;0.20;;
57752;SDS011;43583;53.132;6.574;2023-07-29T12:57:49;1.58;;;0.30;;
57752;SDS011;43583;53.132;6.574;2023-07-29T13:00:14;1.92;;;0.20;;
57752;SDS011;43583;53.132;6.574;2023-07-29T13:02:40;1.75;;;0.30;;
57752;SDS011;43583;53.132;6.574;2023-07-29T13:05:08;1.98;;;0.40;;
57752;SDS011;43583;53.132;6.574;2023-07-29T13:07:35;2.22;;;0.20;;
57752;SDS011;43583;53.132;6.574;2023-07-29T13:10:02;1.50;;;0.20;;
57752;SDS011;43583;53.132;6.574;2023-07-29T13:12:28;2.03;;;0.30;;
57752;SDS011;43583;53.132;6.574;2023-07-29T13:14:53;1.25;;;0.20;;
57752;SDS011;43583;53.132;6.574;2023-07-29T13:17:19;1.73;;;0.22;;
57752;SDS011;43583;53.132;6.574;2023-07-29T13:19:46;1.33;;;0.25;;
57752;SDS011;43583;53.132;6.574;2023-07-29T13:22:12;1.35;;;0.50;;
57752;SDS011;43583;53.132;6.574;2023-07-29T13:24:37;1.80;;;0.30;;
57752;SDS011;43583;53.132;6.574;2023-07-29T13:27:03;2.10;;;0.20;;
57752;SDS011;43583;53.132;6.574;2023-07-29T13:29:29;1.08;;;0.10;;
57752;SDS011;43583;53.132;6.574;2023-07-29T13:31:54;1.25;;;0.20;;
57752;SDS011;43583;53.132;6.574;2023-07-29T13:34:20;1.92;;;0.20;;
57752;SDS011;43583;53.132;6.574;2023-07-29T13:36:45;3.17;;;0.47;;
57752;SDS011;43583;53.132;6.574;2023-07-29T13:39:11;2.28;;;0.20;;
57752;SDS011;43583;53.132;6.574;2023-07-29T13:41:36;1.67;;;0.30;;
57752;SDS011;43583;53.132;6.574;2023-07-29T13:44:02;2.30;;;0.40;;
57752;SDS011;43583;53.132;6.574;2023-07-29T13:46:27;1.92;;;0.20;;
57752;SDS011;43583;53.132;6.574;2023-07-29T13:48:53;2.47;;;0.20;;
57752;SDS011;43583;53.132;6.574;2023-07-29T13:51:18;2.33;;;0.50;;
57752;SDS011;43583;53.132;6.574;2023-07-29T13:53:44;2.22;;;0.20;;
57752;SDS011;43583;53.132;6.574;2023-07-29T13:56:10;2.38;;;0.45;;
57752;SDS011;43583;53.132;6.574;2023-07-29T13:58:35;0.88;;;0.40;;
57752;SDS011;43583;53.132;6.574;2023-07-29T14:01:01;1.65;;;0.35;;
57752;SDS011;43583;53.132;6.574;2023-07-29T14:03:26;1.20;;;0.20;;
57752;SDS011;43583;53.132;6.574;2023-07-29T14:05:52;2.28;;;0.30;;
57752;SDS011;43583;53.132;6.574;2023-07-29T14:08:17;2.08;;;0.20;;
57752;SDS011;43583;53.132;6.574;2023-07-29T14:10:43;3.33;;;0.30;;
57752;SDS011;43583;53.132;6.574;2023-07-29T14:13:08;1.45;;;0.25;;
57752;SDS011;43583;53.132;6.574;2023-07-29T14:15:34;1.25;;;0.20;;
57752;SDS011;43583;53.132;6.574;2023-07-29T14:17:59;1.02;;;0.30;;
57752;SDS011;43583;53.132;6.574;2023-07-29T14:20:27;1.75;;;0.30;;
57752;SDS011;43583;53.132;6.574;2023-07-29T14:22:53;4.05;;;0.47;;
57752;SDS011;43583;53.132;6.574;2023-07-29T14:25:18;1.85;;;0.20;;
57752;SDS011;43583;53.132;6.574;2023-07-29T14:27:44;1.70;;;0.30;;
57752;SDS011;43583;53.132;6.574;2023-07-29T14:30:10;0.85;;;0.30;;
57752;SDS011;43583;53.132;6.574;2023-07-29T14:32:35;1.65;;;0.20;;
57752;SDS011;43583;53.132;6.574;2023-07-29T14:35:02;2.00;;;0.20;;
57752;SDS011;43583;53.132;6.574;2023-07-29T14:37:32;3.80;;;0.30;;
57752;SDS011;43583;53.132;6.574;2023-07-29T14:39:58;1.95;;;0.25;;
57752;SDS011;43583;53.132;6.574;2023-07-29T14:42:23;1.05;;;0.20;;
57752;SDS011;43583;53.132;6.574;2023-07-29T14:44:49;1.77;;;0.10;;
57752;SDS011;43583;53.132;6.574;2023-07-29T14:47:14;2.92;;;0.20;;
57752;SDS011;43583;53.132;6.574;2023-07-29T14:49:40;0.85;;;0.30;;
57752;SDS011;43583;53.132;6.574;2023-07-29T14:52:06;3.17;;;0.50;;
57752;SDS011;43583;53.132;6.574;2023-07-29T14:54:32;2.97;;;0.30;;
57752;SDS011;43583;53.132;6.574;2023-07-29T14:56:57;1.40;;;0.28;;
57752;SDS011;43583;53.132;6.574;2023-07-29T14:59:23;2.83;;;0.17;;
57752;SDS011;43583;53.132;6.574;2023-07-29T15:01:48;1.90;;;0.20;;
57752;SDS011;43583;53.132;6.574;2023-07-29T15:04:14;1.17;;;0.15;;
57752;SDS011;43583;53.132;6.574;2023-07-29T15:06:39;1.52;;;0.30;;
57752;SDS011;43583;53.132;6.574;2023-07-29T15:09:05;1.85;;;0.20;;